Latest Coastal Weather Observations for Dunalley

IDT60701

Issued at 1:32 pm EST Friday 23 June 2017 (issued every 10 minutes, with the page automatically refreshed every 10 minutes)

About coastal observations | Map of coastal stations | Coastal observations for TAS | Marine services | Other Formats
Station Details ID: 094254 Name: DUNALLEY (STROUD POINT) Lat: -42.90 Lon: 147.79 Height: 12.43 m
Data from the previous 72 hours. | See also: Recent months at Dunalley
Date/Time
EST
Temp
°C
Wind Pressure Rain since
9am
mm
Weather Cloud Vis
km
Sea
Height
m
Swell
Dir  Spd
kts
Gust
kts
hPa Trend Height
m
Period
s
Dir
23/01:30pm 16.1 WNW 13 23 999.8 - 0.0 - - - - - - -
23/01:00pm 15.8 WNW 19 31 1000.5 - 0.0 - - - - - - -
23/12:31pm 15.8 NW 16 27 1001.1 - 0.0 - - - - - - -
23/12:30pm 15.7 NW 16 25 1001.2 - 0.0 - - - - - - -
23/12:23pm 15.8 WNW 18 28 1001.5 - 0.0 - - - - - - -
23/12:15pm 15.6 NW 14 27 1001.7 - 0.0 - - - - - - -
23/12:00pm 14.5 NW 10 19 1002.1 - 0.0 - - - - - - -
23/11:30am 15.1 NW 12 25 1003.1 - 0.0 - - - - - - -
23/11:25am 15.1 NW 15 25 1003.3 - 0.0 - - - - - - -
23/11:00am 14.7 NW 14 23 1004.0 - 0.0 - - - - - - -
23/10:37am 14.5 NNW 15 27 1004.3 - 0.0 - - - - - - -
23/10:30am 14.5 NW 14 26 1004.7 - 0.0 - - - - - - -
23/10:23am 14.3 NW 15 27 1004.9 - 0.0 - - - - - - -
23/10:00am 13.5 NNW 9 18 1005.5 - 0.0 - - - - - - -
23/09:30am 9.2 N 5 8 1006.2 - 0.0 - - - - - - -
23/09:00am 10.0 NNW 3 6 1006.7 - 0.0 - - - - - - -
23/08:30am 10.2 NNW 5 8 1007.3 - 0.0 - - - - - - -
23/08:00am 9.2 ENE 7 9 1007.6 - 0.0 - - - - - - -
23/07:30am 8.8 ENE 5 8 1008.2 - 0.0 - - - - - - -
23/07:00am 9.0 NE 7 10 1008.8 - 0.0 - - - - - - -
23/06:30am 9.0 NNE 5 8 1008.6 - 0.0 - - - - - - -
23/06:00am 9.2 N 9 13 1008.5 - 0.0 - - - - - - -
23/05:30am 8.3 NE 10 13 1008.9 - 0.0 - - - - - - -
23/05:00am 7.7 NE 8 12 1009.5 - 0.0 - - - - - - -
23/04:30am 8.0 NE 9 13 1010.1 - 0.0 - - - - - - -
23/04:00am 7.4 NNE 8 13 1010.5 - 0.0 - - - - - - -
23/03:30am 7.7 NE 9 13 1011.2 - 0.0 - - - - - - -
23/03:00am 7.2 NE 9 13 1011.8 - 0.0 - - - - - - -
23/02:30am 6.8 NNE 7 10 1012.8 - 0.0 - - - - - - -
23/02:00am 6.2 NNE 8 10 1013.0 - 0.0 - - - - - - -
23/01:30am 7.2 NNE 10 12 1013.5 - 0.0 - - - - - - -
23/01:00am 7.2 NNE 9 11 1013.9 - 0.0 - - - - - - -
23/12:30am 6.8 NNE 8 10 1014.2 - 0.0 - - - - - - -
23/12:00am 7.2 NE 10 13 1014.7 - 0.0 - - - - - - -
 
Date/Time
EST
Temp
°C
Wind Pressure Rain since
9am
mm
Weather Cloud Vis
km
Sea
Height
m
Swell
Dir  Spd
kts
Gust
kts
hPa Trend Height
m
Period
s
Dir
22/11:30pm 6.8 NNE 7 13 1015.3 - 0.0 - - - - - - -
22/11:00pm 6.4 N 5 8 1016.0 - 0.0 - - - - - - -
22/10:30pm 5.7 N 4 5 1016.4 - 0.0 - - - - - - -
22/10:00pm 7.3 N 5 7 1016.8 - 0.0 - - - - - - -
22/09:30pm 5.8 NNE 6 10 1017.2 - 0.0 - - - - - - -
22/09:00pm 6.2 NNE 6 8 1017.5 - 0.0 - - - - - - -
22/08:30pm 6.4 NNE 8 10 1017.6 - 0.0 - - - - - - -
22/08:00pm 6.6 NNE 7 10 1017.8 - 0.0 - - - - - - -
22/07:30pm 7.0 NNE 10 13 1018.1 - 0.0 - - - - - - -
22/07:00pm 6.7 NW 7 9 1018.5 - 0.0 - - - - - - -
22/06:30pm 6.7 NW 6 8 1018.9 - 0.0 - - - - - - -
22/06:00pm 6.5 NW 4 5 1019.1 - 0.0 - - - - - - -
22/05:30pm 7.1 NW 3 5 1019.4 - 0.0 - - - - - - -
22/05:00pm 7.5 NW 4 5 1019.8 - 0.0 - - - - - - -
22/04:30pm 8.8 NW 5 6 1020.2 - 0.0 - - - - - - -
22/04:00pm 9.4 NW 4 5 1020.2 - 0.0 - - - - - - -
22/03:30pm 9.6 NW 5 9 1020.4 - 0.0 - - - - - - -
22/03:00pm 10.6 NW 8 14 1020.6 - 0.0 - - - - - - -
22/02:30pm 9.9 WNW 12 16 1021.1 - 0.0 - - - - - - -
22/02:00pm 10.6 NW 11 16 1021.4 - 0.0 - - - - - - -
22/01:30pm 10.8 WNW 11 16 1022.2 - 0.0 - - - - - - -
22/01:00pm 10.1 WNW 7 10 1022.7 - 0.0 - - - - - - -
22/12:30pm 10.2 NNW 5 8 1023.3 - 0.0 - - - - - - -
22/12:00pm 9.1 N 3 4 1023.9 - 0.0 - - - - - - -
22/11:30am 9.0 N 3 3 1024.4 - 0.0 - - - - - - -
22/11:00am 8.3 N 2 3 1025.0 - 0.0 - - - - - - -
22/10:30am 7.6 N 3 4 1025.5 - 0.0 - - - - - - -
22/10:00am 7.1 N 4 6 1025.7 - 0.0 - - - - - - -
22/09:30am 7.0 N 2 4 1026.0 - 0.0 - - - - - - -
22/09:00am 5.1 N 1 2 1026.2 - 0.0 - - - - - - -
22/08:30am 4.7 CALM 0 1 1026.2 - 0.0 - - - - - - -
22/08:00am 3.6 N 5 5 1026.5 - 0.0 - - - - - - -
22/07:30am 2.5 N 4 5 1026.9 - 0.0 - - - - - - -
22/07:00am 3.5 CALM 0 0 1027.0 - 0.0 - - - - - - -
22/06:30am 4.1 N 2 3 1027.2 - 0.0 - - - - - - -
22/06:00am 3.8 N 3 4 1027.0 - 0.0 - - - - - - -
22/05:30am 4.2 N 2 3 1027.2 - 0.0 - - - - - - -
22/05:00am 4.0 N 1 6 1027.3 - 0.0 - - - - - - -
22/04:30am 3.2 N 5 7 1027.5 - 0.0 - - - - - - -
22/04:00am 3.1 N 4 5 1027.6 - 0.0 - - - - - - -
22/03:30am 3.3 N 3 4 1027.8 - 0.0 - - - - - - -
22/03:00am 3.3 NNW 4 5 1028.1 - 0.0 - - - - - - -
22/02:30am 3.6 NNW 4 4 1028.4 - 0.0 - - - - - - -
22/02:00am 4.5 NNW 1 3 1028.5 - 0.0 - - - - - - -
22/01:30am 4.9 NNW 1 2 1028.5 - 0.0 - - - - - - -
22/01:00am 5.2 NNW 2 4 1028.7 - 0.0 - - - - - - -
22/12:30am 5.6 NNW 6 8 1028.8 - 0.0 - - - - - - -
22/12:00am 5.8 NNW 7 10 1028.9 - 0.0 - - - - - - -
 
Date/Time
EST
Temp
°C
Wind Pressure Rain since
9am
mm
Weather Cloud Vis
km
Sea
Height
m
Swell
Dir  Spd
kts
Gust
kts
hPa Trend Height
m
Period
s
Dir
21/11:30pm 5.7 NNW 7 8 1029.1 - 0.0 - - - - - - -
21/11:00pm 6.3 NW 7 8 1029.3 - 0.0 - - - - - - -
21/10:30pm 6.0 NW 6 8 1029.1 - 0.0 - - - - - - -
21/10:00pm 6.2 NW 5 7 1029.2 - 0.0 - - - - - - -
21/09:30pm 6.3 NNW 9 10 1029.2 - 0.0 - - - - - - -
21/09:00pm 6.5 NNW 8 10 1029.2 - 0.0 - - - - - - -
21/08:30pm 6.7 NW 6 8 1029.1 - 0.0 - - - - - - -
21/08:00pm 6.4 WNW 6 8 1029.1 - 0.0 - - - - - - -
21/07:30pm 7.4 WNW 5 8 1029.2 - 0.0 - - - - - - -
21/07:00pm 7.4 SW 6 7 1028.8 - 0.0 - - - - - - -
21/06:30pm 6.8 SW 4 5 1028.4 - 0.0 - - - - - - -
21/06:00pm 7.7 SW 2 4 1028.1 - 0.0 - - - - - - -
21/05:30pm 8.9 SW 6 7 1027.7 - 0.0 - - - - - - -
21/05:00pm 9.0 SW 6 7 1027.4 - 0.0 - - - - - - -
21/04:30pm 9.3 SW 6 8 1027.2 - 0.0 - - - - - - -
21/04:00pm 9.3 SW 8 10 1026.9 - 0.0 - - - - - - -
21/03:30pm 9.7 SW 9 11 1026.6 - 0.0 - - - - - - -
21/03:00pm 10.3 SW 10 12 1026.5 - 0.0 - - - - - - -
21/02:30pm 10.5 WSW 10 12 1026.1 - 0.0 - - - - - - -
21/02:00pm 10.1 WSW 10 14 1026.0 - 0.0 - - - - - - -
21/01:30pm 10.3 WSW 14 16 1025.8 - 0.0 - - - - - - -
21/01:00pm 10.4 WSW 12 16 1025.7 - 0.0 - - - - - - -
21/12:30pm 10.2 W 14 17 1025.7 - 0.0 - - - - - - -
21/12:00pm 10.3 W 14 17 1025.7 - 0.0 - - - - - - -
21/11:30am 9.8 WSW 21 24 1025.4 - 0.0 - - - - - - -
21/11:00am 9.7 WSW 19 22 1025.5 - 0.0 - - - - - - -
21/10:30am 9.6 WSW 16 20 1025.4 - 0.0 - - - - - - -
21/10:00am 9.1 W 15 18 1025.1 - 0.0 - - - - - - -
21/09:30am 9.0 WSW 20 23 1024.9 - 0.0 - - - - - - -
21/09:00am 9.4 WSW 17 20 1024.3 - 2.2 - - - - - - -
21/08:30am 9.0 WSW 17 21 1024.0 - 2.2 - - - - - - -
21/08:00am 9.1 WSW 17 20 1023.2 - 2.2 - - - - - - -
21/07:30am 8.8 WSW 17 20 1022.5 - 2.2 - - - - - - -
21/07:00am 9.2 WSW 19 21 1022.0 - 2.2 - - - - - - -
21/06:30am 9.2 WSW 21 26 1021.0 - 2.2 - - - - - - -
21/06:00am 9.2 WSW 19 23 1020.6 - 2.2 - - - - - - -
21/05:30am 9.2 WSW 22 27 1019.8 - 2.2 - - - - - - -
21/05:00am 9.2 WSW 18 21 1019.8 - 2.2 - - - - - - -
21/04:30am 9.4 WSW 22 27 1019.1 - 2.2 - - - - - - -
21/04:00am 9.5 SW 17 22 1019.0 - 2.2 - - - - - - -
21/03:30am 9.5 SW 21 25 1018.1 - 2.2 - - - - - - -
21/03:00am 10.0 WSW 19 22 1017.8 - 2.2 - - - - - - -
21/02:30am 10.1 WSW 19 23 1017.2 - 2.2 - - - - - - -
21/02:00am 9.8 WSW 19 26 1016.7 - 2.2 - - - - - - -
21/01:30am 10.1 WSW 19 24 1016.1 - 2.2 - - - - - - -
21/01:00am 10.3 WSW 14 18 1015.7 - 2.2 - - - - - - -
21/12:30am 10.4 WSW 24 32 1014.7 - 2.2 - - - - - - -
21/12:00am 10.9 WSW 28 33 1013.9 - 2.2 - - - - - - -
 
Date/Time
EST
Temp
°C
Wind Pressure Rain since
9am
mm
Weather Cloud Vis
km
Sea
Height
m
Swell
Dir  Spd
kts
Gust
kts
hPa Trend Height
m
Period
s
Dir
20/11:30pm 11.6 W 27 33 1013.6 - 2.2 - - - - - - -
20/11:00pm 11.4 W 17 25 1013.4 - 2.2 - - - - - - -
20/10:34pm 11.7 W 15 25 1013.4 - 2.2 - - - - - - -
20/10:30pm 11.5 W 13 20 1013.3 - 2.2 - - - - - - -
20/10:00pm 11.7 W 19 23 1013.0 - 2.2 - - - - - - -
20/09:30pm 11.3 W 19 26 1012.1 - 2.2 - - - - - - -
20/09:05pm 13.3 W 16 27 1011.1 - 0.4 - - - - - - -
20/09:00pm 13.6 WNW 14 19 1010.8 - 0.4 Rain - - - - - -
20/08:46pm 14.7 WNW 16 26 1010.3 - 0.0 - - - - - - -
20/08:30pm 15.7 NW 12 19 1009.8 - 0.0 - - - - - - -
20/08:00pm 14.1 N 6 9 1009.9 - 0.0 - - - - - - -
20/07:30pm 12.8 NNE 10 12 1009.7 - 0.0 - - - - - - -
20/07:00pm 13.2 N 12 18 1009.9 - 0.0 - - - - - - -
20/06:30pm 14.9 NNW 12 19 1010.2 - 0.0 - - - - - - -
20/06:00pm 15.3 NNW 10 20 1010.6 - 0.0 - - - - - - -
20/05:30pm 15.2 NNW 9 14 1011.0 - 0.0 - - - - - - -
20/05:00pm 15.9 NNW 11 19 1012.0 - 0.0 - - - - - - -
20/04:33pm 16.0 NW 15 27 1012.4 - 0.0 - - - - - - -
20/04:30pm 16.2 NW 12 20 1012.5 - 0.0 - - - - - - -
20/04:00pm 16.5 NW 13 23 1012.6 - 0.0 - - - - - - -
20/03:30pm 16.8 NW 13 20 1012.9 - 0.0 - - - - - - -
20/03:02pm 16.8 NW 15 26 1013.2 - 0.0 - - - - - - -
20/03:00pm 16.7 NW 15 27 1013.2 - 0.0 - - - - - - -
20/02:30pm 16.8 WNW 21 31 1013.4 - 0.0 - - - - - - -
20/02:16pm 16.6 WNW 18 28 1013.6 - 0.0 - - - - - - -
20/02:08pm 16.7 WNW 13 25 1013.6 - 0.0 - - - - - - -
20/02:00pm 16.3 WNW 7 14 1013.6 - 0.0 - - - - - - -

Other Formats:

Comma delimited format used in spreadsheet applications
http://www.bom.gov.au/fwo/IDT60701/IDT60701.94951.axf

JavaScript Object Notation format (JSON) in row-major order
http://www.bom.gov.au/fwo/IDT60701/IDT60701.94951.json